Time;durP1;ratioP1;P1;durP2;ratioP2;P2;SDS_P1;SDS_P2;PMS_P1;PMS_P2;Temp;Humidity;BMP_temperature;BMP_pressure;BME280_temperature;BME280_humidity;BME280_pressure;Samples;Min_cycle;Max_cycle;Signal;HPM_P1;HPM_P2
2022/02/12 04:31:55;;;;;;;16.47;8.57;;;;;;;2.25;58.77;100286.31;7781703;23;20303;-86
2022/02/12 04:35:18;;;;;;;10.63;7.77;;;;;;;2.57;57.90;100286.50;6867494;28;20217;-87
2022/02/12 04:38:39;;;;;;;18.47;8.80;;;;;;;1.94;58.51;100208.97;6849632;29;20220;-87
2022/02/12 04:42:03;;;;;;;14.57;8.73;;;;;;;2.30;57.85;100276.19;6874338;28;20217;-87
2022/02/12 04:45:25;;;;;;;20.97;10.57;;;;;;;2.37;57.83;100282.72;6876554;28;20240;-85
2022/02/12 04:48:49;;;;;;;12.00;9.07;;;;;;;2.31;57.55;100227.31;6866913;28;20206;-87
2022/02/12 04:52:13;;;;;;;14.90;8.50;;;;;;;2.50;57.50;100283.50;6868233;28;20225;-88
2022/02/12 04:55:34;;;;;;;16.37;9.23;;;;;;;2.47;56.93;100205.66;6869037;28;20212;-88
2022/02/12 04:58:56;;;;;;;16.67;8.53;;;;;;;2.27;57.04;100246.31;6874555;28;20205;-89
2022/02/12 05:02:18;;;;;;;11.20;8.07;;;;;;;2.80;57.44;100277.59;6875546;28;20218;-89
2022/02/12 05:05:41;;;;;;;14.50;8.43;;;;;;;1.34;58.86;100203.81;6873245;28;20230;-87
2022/02/12 05:09:02;;;;;;;14.27;8.73;;;;;;;1.70;60.33;100254.22;6873652;28;20248;-89
2022/02/12 05:12:24;;;;;;;17.83;10.70;;;;;;;1.96;56.95;100213.22;6872912;28;20757;-88
2022/02/12 05:15:46;;;;;;;15.90;10.50;;;;;;;2.26;57.34;100229.47;6873187;28;20197;-88
2022/02/12 05:19:07;;;;;;;14.40;9.40;;;;;;;2.34;57.23;100255.50;6873920;28;20209;-88
2022/02/12 05:22:42;;;;;;;11.83;7.90;;;;;;;2.32;57.43;100221.06;6875420;28;20240;-88
2022/02/12 05:26:17;;;;;;;14.23;8.53;;;;;;;1.52;57.89;100159.94;6884705;28;20235;-87
2022/02/12 05:29:42;;;;;;;15.97;8.17;;;;;;;2.17;58.27;100247.97;6885992;28;20221;-88
2022/02/12 05:37:35;;;;;;;11.07;8.67;;;;;;;2.63;57.51;100223.00;6885012;28;20208;-87
2022/02/12 05:41:13;;;;;;;13.23;8.83;;;;;;;1.80;56.93;100233.97;6853835;28;20224;-88
2022/02/12 05:44:43;;;;;;;16.90;9.07;;;;;;;2.36;57.52;100238.44;6884834;28;20225;-87
2022/02/12 05:48:06;;;;;;;27.67;16.97;;;;;;;2.26;57.00;100226.81;6884604;28;20295;-87
2022/02/12 05:51:32;;;;;;;14.23;8.23;;;;;;;2.52;55.46;100182.19;6882719;28;20233;-87
2022/02/12 05:54:56;;;;;;;14.03;7.53;;;;;;;1.37;56.25;100091.97;6881394;28;20213;-89
2022/02/12 05:58:24;;;;;;;12.13;8.10;;;;;;;2.31;56.72;100221.16;6881906;28;20210;-88
2022/02/12 06:01:51;;;;;;;20.07;9.27;;;;;;;2.20;56.58;100221.97;6882533;28;20323;-86
2022/02/12 06:05:16;;;;;;;14.77;8.90;;;;;;;0.77;57.07;100055.91;6880976;28;20228;-90
2022/02/12 06:08:38;;;;;;;12.73;8.97;;;;;;;2.04;57.87;100220.63;6882013;28;20303;-86
2022/02/12 06:12:11;;;;;;;11.67;8.13;;;;;;;2.16;56.71;100217.88;6881480;28;20232;-90
2022/02/12 06:15:40;;;;;;;15.20;8.57;;;;;;;1.67;57.62;100152.59;6880090;28;20200;-88
2022/02/12 06:19:05;;;;;;;13.47;7.87;;;;;;;2.30;57.00;100214.97;6880146;28;20208;-88
2022/02/12 06:22:28;;;;;;;15.50;7.70;;;;;;;1.98;57.26;100215.75;6880854;28;20232;-89
2022/02/12 06:25:51;;;;;;;11.23;7.20;;;;;;;2.16;57.37;100209.88;6880181;28;20283;-87
2022/02/12 06:29:25;;;;;;;13.57;9.63;;;;;;;1.50;56.33;100119.34;6881251;28;20696;-89
2022/02/12 06:32:46;;;;;;;13.43;7.90;;;;;;;1.78;56.72;100203.97;6883132;28;20322;-88
2022/02/12 06:36:08;;;;;;;15.43;8.60;;;;;;;1.82;58.56;100210.78;6877406;28;20224;-88
2022/02/12 06:39:36;;;;;;;14.17;9.57;;;;;;;1.63;58.09;100183.88;6865327;28;20578;-89
2022/02/12 06:42:58;;;;;;;18.80;10.40;;;;;;;2.03;57.36;100206.50;6879985;28;20216;-87
2022/02/12 06:46:22;;;;;;;18.67;10.07;;;;;;;1.07;57.01;100125.31;6877102;28;20228;-87
2022/02/12 06:49:44;;;;;;;15.93;10.27;;;;;;;1.18;57.57;100168.72;6875280;28;20209;-89
2022/02/12 06:53:06;;;;;;;11.20;8.10;;;;;;;2.09;57.51;100221.13;6858203;28;20312;-89
2022/02/12 06:56:39;;;;;;;13.63;8.87;;;;;;;1.99;56.78;100175.75;6876855;28;20640;-87
2022/02/12 07:00:01;;;;;;;14.03;9.23;;;;;;;1.44;56.80;100166.78;6872281;28;20656;-88
2022/02/12 07:03:24;;;;;;;16.63;9.63;;;;;;;2.14;57.60;100221.63;6876618;28;20217;-88
2022/02/12 07:06:47;;;;;;;14.73;8.73;;;;;;;1.70;56.29;100177.13;6878042;28;20213;-87
2022/02/12 07:10:09;;;;;;;13.73;8.23;;;;;;;1.43;56.77;100168.56;6880218;28;20213;-87
2022/02/12 07:13:37;;;;;;;12.40;8.33;;;;;;;1.34;56.85;100108.16;6881431;28;20197;-88
2022/02/12 07:16:59;;;;;;;16.50;9.03;;;;;;;1.69;56.15;100225.97;6878787;28;20199;-88
2022/02/12 07:20:40;;;;;;;14.43;8.30;;;;;;;0.94;57.55;100167.84;6881141;28;20239;-88
2022/02/12 07:24:32;;;;;;;19.43;11.57;;;;;;;1.84;57.77;100215.97;6879878;28;20251;-88
2022/02/12 07:27:55;;;;;;;23.43;13.83;;;;;;;1.78;56.63;100112.75;6773086;29;20219;-86
2022/02/12 07:31:23;;;;;;;18.37;10.40;;;;;;;2.19;56.57;100214.97;6769235;29;20235;-89
2022/02/12 07:34:45;;;;;;;23.97;13.20;;;;;;;1.76;57.35;100147.44;6773354;29;20218;-88
2022/02/12 07:38:09;;;;;;;20.73;13.97;;;;;;;2.49;56.51;100219.72;6777894;29;20202;-89
2022/02/12 07:41:34;;;;;;;19.90;12.77;;;;;;;1.84;56.84;100073.22;6787071;29;20259;-88
2022/02/12 07:44:56;;;;;;;19.70;11.97;;;;;;;2.63;56.16;100168.91;6777701;29;20594;-86
2022/02/12 07:48:18;;;;;;;16.40;12.17;;;;;;;3.13;55.53;100166.50;6756553;29;20604;-83
2022/02/12 07:51:39;;;;;;;17.40;11.23;;;;;;;3.74;54.55;100229.81;6752308;29;20244;-84
2022/02/12 07:55:02;;;;;;;21.80;12.60;;;;;;;3.32;55.06;100225.31;6756888;29;20221;-83
2022/02/12 07:58:24;;;;;;;20.43;12.17;;;;;;;3.26;55.49;100231.16;6758287;29;20752;-82
2022/02/12 08:01:45;;;;;;;17.00;11.73;;;;;;;3.54;55.79;100211.09;6757553;29;20313;-82
2022/02/12 08:05:07;;;;;;;17.00;11.77;;;;;;;3.88;54.78;100212.63;6828641;28;20642;-82
2022/02/12 08:08:29;;;;;;;17.73;11.40;;;;;;;3.96;54.83;100221.69;6865538;28;20206;-83
2022/02/12 08:11:55;;;;;;;23.30;12.87;;;;;;;3.85;54.65;100218.22;6866844;28;20228;-81
2022/02/12 08:15:17;;;;;;;27.53;14.80;;;;;;;3.47;55.47;100228.53;6866916;28;20265;-82
2022/02/12 08:18:38;;;;;;;23.40;13.20;;;;;;;3.45;56.01;100196.69;6864835;28;20319;-82
2022/02/12 08:22:00;;;;;;;21.20;13.47;;;;;;;3.95;55.98;100211.97;6841903;28;20280;-83
2022/02/12 08:25:22;;;;;;;18.03;11.20;;;;;;;4.27;54.09;100195.91;6854345;29;20231;-82
2022/02/12 08:28:45;;;;;;;18.20;11.03;;;;;;;4.42;54.28;100219.44;6856000;28;20416;-82
2022/02/12 08:32:07;;;;;;;13.30;9.60;;;;;;;4.54;53.90;100209.56;6875714;28;20232;-83
2022/02/12 08:35:29;;;;;;;13.90;9.97;;;;;;;4.87;53.84;100212.78;6879689;28;20211;-82
2022/02/12 08:38:51;;;;;;;17.70;11.33;;;;;;;5.74;53.49;100161.13;6879929;28;20216;-81
2022/02/12 08:42:12;;;;;;;16.87;9.77;;;;;;;8.48;45.20;100170.44;6878978;28;20239;-83
2022/02/12 08:45:35;;;;;;;11.83;7.60;;;;;;;10.90;40.07;100153.41;6876413;28;20292;-83
2022/02/12 08:48:58;;;;;;;11.83;7.50;;;;;;;12.08;36.25;100158.28;6877881;28;20216;-83
2022/02/12 08:52:20;;;;;;;10.03;7.57;;;;;;;13.07;36.38;100158.78;6875192;28;20232;-83
2022/02/12 08:55:41;;;;;;;12.67;7.37;;;;;;;12.45;37.77;100160.97;6865022;28;20198;-82
2022/02/12 08:59:03;;;;;;;13.00;8.53;;;;;;;12.72;35.39;100163.06;6853831;28;20220;-84
2022/02/12 09:02:26;;;;;;;15.03;9.93;;;;;;;12.55;36.89;100148.03;6867547;28;20316;-84
2022/02/12 09:05:49;;;;;;;20.10;8.80;;;;;;;12.91;35.52;100132.72;6871593;28;20225;-83
2022/02/12 09:09:10;;;;;;;13.77;8.70;;;;;;;14.13;34.32;100152.47;6872244;28;20205;-83
2022/02/12 09:12:33;;;;;;;12.97;8.13;;;;;;;14.18;34.30;100136.47;6871520;28;20320;-83
2022/02/12 09:15:55;;;;;;;14.17;9.27;;;;;;;15.13;33.76;100130.25;6870668;28;20224;-83
2022/02/12 09:19:20;;;;;;;14.33;9.33;;;;;;;13.86;34.94;100058.41;6867434;28;20262;-84
2022/02/12 09:22:41;;;;;;;12.73;8.73;;;;;;;12.50;38.21;100134.22;6871286;28;20241;-82
2022/02/12 09:26:03;;;;;;;14.27;9.43;;;;;;;12.20;40.48;100126.22;6865118;28;20229;-83
2022/02/12 09:29:25;;;;;;;13.03;8.23;;;;;;;11.24;42.17;100138.59;6864853;28;20208;-83
2022/02/12 09:32:47;;;;;;;11.30;7.33;;;;;;;10.61;44.49;100129.75;6868573;28;20279;-82
2022/02/12 09:36:10;;;;;;;9.27;5.50;;;;;;;9.64;45.66;100138.06;6867961;28;20205;-83
2022/02/12 09:39:32;;;;;;;12.13;5.93;;;;;;;9.17;47.09;100104.69;6868629;28;20209;-84
2022/02/12 09:42:55;;;;;;;11.40;5.30;;;;;;;8.44;48.24;100097.31;6868480;28;20229;-84
2022/02/12 09:46:59;;;;;;;11.40;6.13;;;;;;;8.24;49.14;100135.34;6867953;28;20240;-83
2022/02/12 09:50:23;;;;;;;11.67;5.80;;;;;;;7.64;49.81;100107.50;6868167;28;21172;-83
2022/02/12 09:53:46;;;;;;;10.80;6.27;;;;;;;7.45;50.97;100110.34;6868042;28;20205;-83
2022/02/12 09:57:08;;;;;;;14.50;6.37;;;;;;;7.28;50.86;100113.88;6856923;28;20216;-83
2022/02/12 10:00:29;;;;;;;11.77;6.53;;;;;;;7.88;50.75;100080.84;6867317;28;20232;-84
2022/02/12 10:03:52;;;;;;;8.27;5.30;;;;;;;7.66;48.39;100016.09;6866011;28;20254;-84
2022/02/12 10:07:43;;;;;;;10.07;6.30;;;;;;;8.36;50.18;100104.53;6866475;28;20257;-84
2022/02/12 10:11:14;;;;;;;9.63;6.93;;;;;;;8.12;50.10;100088.19;6866307;28;20229;-84
2022/02/12 10:14:36;;;;;;;11.10;5.83;;;;;;;7.69;50.61;100102.50;6866548;28;20323;-83
2022/02/12 10:17:59;;;;;;;9.03;5.53;;;;;;;8.38;49.45;100087.22;6865620;28;20205;-84
2022/02/12 10:21:25;;;;;;;11.10;6.97;;;;;;;8.39;49.73;100090.75;6865602;28;20239;-84
2022/02/12 10:24:55;;;;;;;10.50;6.13;;;;;;;8.12;49.80;100086.38;6865061;28;20581;-84
2022/02/12 10:28:19;;;;;;;13.20;5.83;;;;;;;8.64;48.82;100081.78;6890053;28;20196;-87
2022/02/12 10:31:44;;;;;;;13.13;6.23;;;;;;;8.99;48.07;100060.91;6893422;28;20240;-83
2022/02/12 10:35:09;;;;;;;12.60;6.43;;;;;;;9.49;47.82;100056.25;6869809;28;20301;-83
2022/02/12 10:38:33;;;;;;;11.23;5.90;;;;;;;9.83;46.01;100055.09;6870950;28;20697;-84
2022/02/12 10:42:05;;;;;;;12.03;6.80;;;;;;;9.04;48.32;100039.75;6870148;28;20368;-86
2022/02/12 10:45:29;;;;;;;10.43;6.00;;;;;;;7.85;48.61;99962.19;6868210;28;20224;-85
2022/02/12 10:48:51;;;;;;;11.20;5.70;;;;;;;8.76;47.28;99940.66;6868607;28;20208;-83
2022/02/12 10:52:14;;;;;;;9.13;5.87;;;;;;;8.66;48.57;100028.72;6868899;28;20269;-86
2022/02/12 10:55:38;;;;;;;12.03;5.70;;;;;;;9.43;47.81;100035.38;6865240;28;20220;-85
2022/02/12 10:59:00;;;;;;;11.07;5.93;;;;;;;9.87;45.58;100010.59;6868721;28;20204;-84
2022/02/12 11:02:24;;;;;;;10.77;5.53;;;;;;;9.38;46.52;99990.16;6867635;28;20228;-85
2022/02/12 11:05:52;;;;;;;9.37;5.67;;;;;;;9.56;46.72;99966.56;6867413;28;20236;-86
2022/02/12 11:09:13;;;;;;;11.40;6.23;;;;;;;10.31;44.11;100008.34;6868369;28;20292;-83
2022/02/12 11:12:37;;;;;;;11.97;6.40;;;;;;;10.14;44.85;99999.47;6869246;28;20504;-82
2022/02/12 11:15:58;;;;;;;13.40;5.83;;;;;;;9.94;43.90;99905.72;6868110;28;20220;-84
2022/02/12 11:19:24;;;;;;;8.07;4.70;;;;;;;9.72;42.78;99992.63;6869160;28;20240;-84
2022/02/12 11:22:47;;;;;;;10.13;4.97;;;;;;;11.00;42.47;99981.34;6865655;28;20247;-84
2022/02/12 11:26:21;;;;;;;10.43;5.47;;;;;;;11.09;40.79;99977.56;6864501;28;20279;-84
2022/02/12 11:29:44;;;;;;;4.67;3.97;;;;;;;11.64;39.95;99948.41;6871735;28;20216;-84
2022/02/12 11:33:11;;;;;;;8.87;4.17;;;;;;;11.90;37.12;99957.78;6891256;28;20248;-87
2022/02/12 11:36:34;;;;;;;6.53;3.90;;;;;;;12.36;37.13;99934.91;6881980;28;20213;-85
2022/02/12 11:40:13;;;;;;;7.47;3.80;;;;;;;12.03;37.05;99927.41;6867372;28;20219;-84
2022/02/12 11:43:38;;;;;;;6.07;3.43;;;;;;;11.57;36.71;99877.22;6867027;28;20213;-84
2022/02/12 11:51:03;;;;;;;4.97;3.53;;;;;;;12.01;36.01;99891.59;6788296;29;20227;-87
2022/02/12 11:54:56;;;;;;;4.90;3.40;;;;;;;11.78;35.31;99901.66;6792965;29;20295;-87
2022/02/12 11:58:23;;;;;;;4.70;3.73;;;;;;;11.48;36.09;99906.19;6788580;29;20214;-88
2022/02/12 12:02:05;;;;;;;3.73;2.90;;;;;;;11.57;35.38;99886.16;6795108;29;20265;-89
2022/02/12 12:05:27;;;;;;;4.57;2.80;;;;;;;11.64;34.22;99876.31;6792829;29;20235;-89
2022/02/12 12:09:04;;;;;;;6.40;2.57;;;;;;;10.70;34.34;99780.72;6842350;28;20205;-88
2022/02/12 12:12:27;;;;;;;3.33;2.60;;;;;;;11.34;33.57;99866.47;6863465;28;20224;-87
2022/02/12 12:15:50;;;;;;;5.70;3.30;;;;;;;11.51;34.26;99859.88;6862700;28;20201;-89
2022/02/12 12:19:12;;;;;;;4.07;3.23;;;;;;;10.90;33.99;99853.91;6863917;28;20316;-87
2022/02/12 12:22:33;;;;;;;3.33;3.03;;;;;;;11.49;33.45;99851.13;6866255;28;20225;-86
2022/02/12 12:26:00;;;;;;;3.47;2.97;;;;;;;11.52;32.85;99841.81;6865599;28;20705;-86
2022/02/12 12:33:06;;;;;;;3.30;2.90;;;;;;;12.01;32.36;99832.97;6867808;28;20233;-86
2022/02/12 12:36:28;;;;;;;3.93;2.73;;;;;;;11.29;30.81;99778.97;6869204;28;20228;-87
2022/02/12 12:39:51;;;;;;;3.47;2.87;;;;;;;11.43;31.89;99837.53;6865507;28;20292;-87
2022/02/12 12:44:08;;;;;;;3.83;2.60;;;;;;;11.23;31.80;99785.94;6883408;28;20225;-91
2022/02/12 12:52:05;;;;;;;3.50;3.20;;;;;;;11.76;30.38;99782.13;6854592;28;20226;-87
2022/02/12 12:55:27;;;;;;;3.73;3.20;;;;;;;10.83;31.78;99742.34;6869570;28;20311;-86
2022/02/12 12:59:02;;;;;;;5.43;3.10;;;;;;;11.71;31.43;99816.97;6868794;28;20205;-86
2022/02/12 13:02:25;;;;;;;4.60;3.17;;;;;;;11.42;31.81;99725.13;6868122;28;20232;-86
2022/02/12 13:05:48;;;;;;;4.80;3.20;;;;;;;12.75;30.99;99800.03;6866926;28;20287;-86
2022/02/12 13:09:12;;;;;;;3.47;3.17;;;;;;;12.68;29.85;99765.88;6867767;28;20329;-87
2022/02/12 13:12:35;;;;;;;3.40;3.10;;;;;;;12.90;30.60;99799.97;6865047;28;20234;-86
2022/02/12 13:15:57;;;;;;;5.17;3.50;;;;;;;12.05;30.85;99725.31;6863654;28;20212;-86
2022/02/12 13:19:20;;;;;;;4.00;3.27;;;;;;;12.26;30.34;99801.00;6865195;28;20658;-87
2022/02/12 13:22:42;;;;;;;4.33;2.93;;;;;;;12.89;29.68;99799.13;6867614;28;20222;-87
2022/02/12 13:26:05;;;;;;;6.73;3.60;;;;;;;12.27;30.46;99772.97;6865695;28;20661;-87
2022/02/12 13:29:29;;;;;;;4.70;3.70;;;;;;;12.21;30.46;99795.34;6868330;28;20248;-87
2022/02/12 13:32:51;;;;;;;9.53;5.53;;;;;;;12.49;30.00;99697.03;6866480;28;20233;-87
2022/02/12 13:36:13;;;;;;;4.87;3.30;;;;;;;12.60;30.15;99769.53;6867062;28;20209;-87
2022/02/12 13:39:35;;;;;;;3.93;3.40;;;;;;;12.72;30.63;99769.84;6867833;28;20214;-87
2022/02/12 13:43:01;;;;;;;5.37;3.67;;;;;;;11.84;31.07;99746.88;6867507;28;20236;-87
2022/02/12 13:46:23;;;;;;;4.83;3.60;;;;;;;12.21;31.45;99762.91;6867821;28;20302;-86
2022/02/12 13:49:44;;;;;;;5.00;3.87;;;;;;;12.19;32.02;99738.75;6869107;28;20213;-87
2022/02/12 13:53:07;;;;;;;6.50;4.07;;;;;;;12.71;32.03;99757.34;6865594;28;20250;-87
2022/02/12 13:56:38;;;;;;;7.83;4.40;;;;;;;12.90;31.13;99725.03;6865681;28;20295;-87
2022/02/12 14:00:01;;;;;;;5.53;3.67;;;;;;;13.18;30.38;99698.78;6867112;28;20279;-86
2022/02/12 14:03:35;;;;;;;6.70;4.50;;;;;;;13.00;31.25;99763.44;6866021;28;20248;-87
2022/02/12 14:06:57;;;;;;;4.40;3.90;;;;;;;12.90;31.79;99757.50;6864575;28;20227;-90
2022/02/12 14:10:19;;;;;;;8.30;5.30;;;;;;;12.61;32.04;99719.81;6865149;28;20190;-85
2022/02/12 14:13:40;;;;;;;6.17;4.20;;;;;;;12.70;32.97;99770.03;6865511;28;20231;-84
2022/02/12 14:17:04;;;;;;;7.00;4.60;;;;;;;12.17;32.52;99756.22;6865737;28;20207;-84
2022/02/12 14:20:25;;;;;;;4.77;4.30;;;;;;;12.30;33.88;99767.16;6866073;28;20633;-86
2022/02/12 14:23:47;;;;;;;5.97;4.87;;;;;;;12.24;33.62;99763.38;6864881;28;20221;-85
2022/02/12 14:27:08;;;;;;;5.33;4.50;;;;;;;12.46;34.30;99770.44;6865807;28;20228;-85
2022/02/12 14:30:30;;;;;;;6.13;4.77;;;;;;;12.08;34.11;99760.03;6864954;28;20231;-85
2022/02/12 14:33:53;;;;;;;6.00;5.03;;;;;;;12.12;33.92;99764.03;6865360;28;20608;-85
2022/02/12 14:37:14;;;;;;;7.47;5.30;;;;;;;12.46;33.81;99750.66;6865320;28;20210;-85
2022/02/12 14:40:36;;;;;;;6.07;4.67;;;;;;;11.99;34.14;99758.50;6866188;28;20232;-85
2022/02/12 14:43:58;;;;;;;8.53;5.97;;;;;;;11.85;35.75;99738.59;6865437;28;20198;-85
2022/02/12 14:47:19;;;;;;;6.67;4.90;;;;;;;11.71;35.85;99733.22;6866724;28;20292;-85
2022/02/12 14:50:42;;;;;;;6.10;5.43;;;;;;;11.87;36.13;99725.72;6868657;28;20236;-85
2022/02/12 14:54:04;;;;;;;8.00;6.00;;;;;;;12.01;35.68;99714.03;6866023;28;20209;-85
2022/02/12 14:57:26;;;;;;;10.93;5.83;;;;;;;12.23;35.50;99713.00;6866693;28;20303;-84
2022/02/12 15:00:48;;;;;;;8.17;5.77;;;;;;;11.76;36.11;99691.09;6867297;28;20290;-85
2022/02/12 15:04:10;;;;;;;7.70;5.90;;;;;;;11.56;37.27;99702.69;6868091;28;20267;-85
2022/02/12 15:07:33;;;;;;;10.60;6.63;;;;;;;11.58;36.79;99701.47;6868097;28;20251;-85
2022/02/12 15:10:55;;;;;;;9.97;6.10;;;;;;;11.92;36.30;99687.34;6884938;28;20225;-85
2022/02/12 15:14:19;;;;;;;11.27;6.50;;;;;;;11.46;36.18;99640.84;6869668;28;20244;-85
2022/02/12 15:17:41;;;;;;;10.87;6.50;;;;;;;12.12;35.79;99682.94;6868958;28;20343;-85
2022/02/12 15:21:04;;;;;;;7.67;5.80;;;;;;;11.93;36.02;99653.88;6870880;28;20224;-85
2022/02/12 15:24:28;;;;;;;9.07;5.87;;;;;;;11.91;35.89;99605.41;6867512;28;20209;-88
2022/02/12 15:27:50;;;;;;;10.70;5.67;;;;;;;11.88;36.48;99678.78;6857167;28;20467;-88
2022/02/12 15:31:12;;;;;;;6.53;5.47;;;;;;;11.48;36.72;99651.47;6842224;28;20248;-84
2022/02/12 15:34:34;;;;;;;7.07;5.87;;;;;;;11.33;37.15;99632.59;6845319;29;20690;-84
2022/02/12 15:37:56;;;;;;;8.23;5.97;;;;;;;11.60;37.08;99663.47;6838086;29;20329;-87
2022/02/12 15:41:20;;;;;;;11.30;6.30;;;;;;;11.84;36.74;99636.09;6837816;28;20744;-87
2022/02/12 15:44:42;;;;;;;7.50;6.30;;;;;;;11.70;36.67;99618.09;6837969;28;20208;-88
2022/02/12 15:48:05;;;;;;;8.13;6.37;;;;;;;11.54;36.67;99623.69;6837970;29;20237;-87
2022/02/12 15:51:26;;;;;;;10.47;5.80;;;;;;;11.28;37.60;99624.22;6838037;28;20388;-87
2022/02/12 15:54:48;;;;;;;9.57;6.30;;;;;;;11.50;37.64;99625.94;6837459;29;20251;-88
2022/02/12 15:58:11;;;;;;;8.07;6.07;;;;;;;11.39;37.94;99628.31;6864972;28;20213;-86
2022/02/12 16:01:37;;;;;;;8.90;5.43;;;;;;;11.30;38.09;99606.00;6839261;28;20233;-87
2022/02/12 16:04:59;;;;;;;8.37;7.27;;;;;;;11.52;37.37;99626.59;6842407;28;20186;-87
2022/02/12 16:08:25;;;;;;;9.83;6.43;;;;;;;11.24;37.85;99614.88;6841274;29;20237;-87
2022/02/12 16:11:47;;;;;;;7.10;5.93;;;;;;;11.09;38.10;99616.75;6841220;28;20235;-87
2022/02/12 16:15:10;;;;;;;10.40;5.77;;;;;;;11.42;37.69;99611.72;6838918;29;20224;-87
2022/02/12 16:18:32;;;;;;;6.60;5.93;;;;;;;11.64;37.16;99614.28;6837410;29;20210;-88
2022/02/12 16:21:54;;;;;;;7.17;5.67;;;;;;;11.28;37.48;99605.34;6837610;28;20302;-87
2022/02/12 16:25:24;;;;;;;7.67;6.03;;;;;;;11.24;37.84;99568.13;6864858;28;20197;-85
2022/02/12 16:28:45;;;;;;;10.67;6.73;;;;;;;10.87;37.76;99490.91;6873127;28;20209;-85
2022/02/12 16:32:09;;;;;;;12.27;8.33;;;;;;;11.53;38.13;99600.44;6872322;28;20247;-86
2022/02/12 16:35:33;;;;;;;9.27;8.00;;;;;;;11.37;38.37;99603.34;6871708;28;20287;-86
2022/02/12 16:39:19;;;;;;;12.17;6.90;;;;;;;10.74;39.00;99617.50;6871386;28;20205;-87
2022/02/12 16:42:44;;;;;;;11.43;7.40;;;;;;;10.86;39.63;99616.03;6872065;28;20236;-85
2022/02/12 16:46:06;;;;;;;10.60;6.03;;;;;;;10.54;39.66;99591.28;6871417;28;20228;-87
2022/02/12 16:49:29;;;;;;;17.37;7.53;;;;;;;10.88;39.67;99599.66;6869935;28;20200;-85
2022/02/12 16:52:52;;;;;;;10.63;7.03;;;;;;;10.36;41.28;99615.94;6873438;28;20217;-88
2022/02/12 16:56:13;;;;;;;8.70;6.57;;;;;;;10.00;41.69;99604.13;6873357;28;20240;-89
2022/02/12 16:59:35;;;;;;;12.43;7.30;;;;;;;10.22;41.48;99648.25;6870972;28;20205;-82
2022/02/12 17:02:57;;;;;;;16.80;8.40;;;;;;;9.85;42.71;99649.03;6868683;28;20233;-85
2022/02/12 17:06:20;;;;;;;12.37;8.20;;;;;;;9.65;43.68;99644.28;6867622;28;20232;-83
2022/02/12 17:09:42;;;;;;;14.87;8.47;;;;;;;9.76;42.82;99615.09;6870022;28;20208;-85
2022/02/12 17:13:03;;;;;;;13.53;9.73;;;;;;;9.53;43.52;99622.34;6872574;28;20229;-85
2022/02/12 17:16:25;;;;;;;18.07;9.20;;;;;;;9.04;44.82;99644.31;6872716;28;20451;-85
2022/02/12 17:19:49;;;;;;;16.03;8.47;;;;;;;8.49;45.64;99581.66;6872378;28;20205;-84
2022/02/12 17:23:12;;;;;;;13.83;9.00;;;;;;;8.40;47.09;99647.22;6846438;28;20234;-83
2022/02/12 17:26:34;;;;;;;15.87;9.50;;;;;;;8.27;46.62;99611.97;6841914;29;20608;-84
2022/02/12 17:29:57;;;;;;;12.67;8.27;;;;;;;8.21;46.91;99607.28;6843719;29;20264;-84
2022/02/12 17:33:19;;;;;;;18.00;9.07;;;;;;;8.64;46.26;99640.91;6861538;28;20241;-84
2022/02/12 17:36:40;;;;;;;13.53;9.07;;;;;;;8.40;46.11;99647.22;6870655;28;20256;-82
2022/02/12 17:40:06;;;;;;;14.47;9.30;;;;;;;7.50;48.40;99624.22;6869173;28;20235;-81
2022/02/12 17:43:27;;;;;;;13.43;8.40;;;;;;;7.49;48.28;99588.47;6869493;28;20583;-82
2022/02/12 17:46:49;;;;;;;13.47;8.27;;;;;;;7.73;48.65;99641.34;6866963;28;20255;-84
2022/02/12 17:50:11;;;;;;;11.60;8.03;;;;;;;7.33;48.50;99590.31;6867845;28;20242;-84
2022/02/12 17:53:33;;;;;;;16.23;8.00;;;;;;;7.47;48.59;99628.06;6867013;28;20205;-83
2022/02/12 17:56:56;;;;;;;11.87;8.37;;;;;;;7.29;49.35;99643.44;6867279;28;20263;-85
2022/02/12 18:00:33;;;;;;;14.67;8.60;;;;;;;6.97;50.05;99647.88;6868354;28;20198;-84
2022/02/12 18:03:55;;;;;;;15.50;9.47;;;;;;;6.86;50.29;99648.16;6867645;28;20219;-84
2022/02/12 18:07:17;;;;;;;15.20;8.57;;;;;;;6.58;50.79;99657.38;6868132;28;20221;-83
2022/02/12 18:10:38;;;;;;;14.67;9.43;;;;;;;5.96;51.18;99567.47;6867767;28;20229;-83
2022/02/12 18:14:02;;;;;;;12.63;9.10;;;;;;;6.60;50.25;99589.25;6864326;28;20205;-84
2022/02/12 18:17:25;;;;;;;10.20;8.00;;;;;;;6.70;49.60;99606.06;6842007;28;20667;-84
2022/02/12 18:20:46;;;;;;;10.63;7.60;;;;;;;6.52;49.66;99562.44;6843981;28;20776;-84
2022/02/12 18:24:11;;;;;;;11.73;7.67;;;;;;;6.72;49.28;99576.44;6845281;28;20217;-83
2022/02/12 18:27:33;;;;;;;11.23;8.13;;;;;;;6.84;48.80;99604.59;6845170;29;20237;-84
2022/02/12 18:30:56;;;;;;;11.77;8.00;;;;;;;6.59;49.11;99613.53;6843625;28;20245;-83
2022/02/12 18:34:17;;;;;;;14.63;8.00;;;;;;;5.92;50.91;99576.84;6845769;29;20217;-83
2022/02/12 18:37:39;;;;;;;11.47;7.63;;;;;;;5.97;50.22;99538.91;6858506;29;20215;-86
2022/02/12 18:41:01;;;;;;;10.80;7.73;;;;;;;6.40;49.04;99553.03;6858934;28;20224;-84
2022/02/12 18:44:23;;;;;;;10.13;7.10;;;;;;;6.57;49.25;99596.78;6843530;29;20256;-84
2022/02/12 18:47:46;;;;;;;13.67;8.00;;;;;;;6.54;49.04;99578.38;6846926;29;20240;-84
2022/02/12 18:51:08;;;;;;;12.10;8.23;;;;;;;6.50;48.69;99563.59;6847249;28;20230;-84
2022/02/12 18:54:30;;;;;;;11.83;8.37;;;;;;;6.56;49.19;99589.75;6864922;28;20213;-84
2022/02/12 18:57:53;;;;;;;9.27;7.90;;;;;;;6.43;49.19;99584.00;6873726;28;20215;-84
2022/02/12 19:01:15;;;;;;;11.40;7.73;;;;;;;5.73;49.19;99463.81;6871764;28;20221;-84
2022/02/12 19:04:39;;;;;;;12.30;8.03;;;;;;;5.76;49.52;99500.91;6870830;28;20208;-86
2022/02/12 19:08:00;;;;;;;8.90;7.20;;;;;;;6.36;49.58;99591.81;6873076;28;20577;-86
2022/02/12 19:11:23;;;;;;;12.20;6.93;;;;;;;6.57;49.08;99588.75;6876582;28;20233;-86
2022/02/12 19:14:45;;;;;;;11.57;8.23;;;;;;;5.82;48.90;99479.78;6869047;28;20222;-86
2022/02/12 19:18:07;;;;;;;11.73;8.07;;;;;;;5.86;50.32;99557.88;6854341;29;20221;-85
2022/02/12 19:22:18;;;;;;;12.10;8.00;;;;;;;5.70;49.89;99502.41;6851761;29;20229;-89
2022/02/12 19:25:57;;;;;;;11.10;8.07;;;;;;;5.90;49.60;99521.81;6853627;28;20222;-88
2022/02/12 19:33:04;;;;;;;13.53;7.83;;;;;;;5.60;50.50;99528.41;6864414;28;20285;-86
2022/02/12 19:36:32;;;;;;;10.33;7.70;;;;;;;5.45;50.43;99495.22;6882013;28;20296;-86
2022/02/12 19:44:24;;;;;;;11.70;9.30;;;;;;;5.70;51.18;99571.09;6794903;29;20200;-86
2022/02/12 19:47:45;;;;;;;9.57;7.03;;;;;;;5.46;50.88;99509.41;6794057;29;20227;-87
2022/02/12 19:51:19;;;;;;;8.97;6.57;;;;;;;5.51;50.72;99499.94;6795235;29;20239;-86
2022/02/12 19:54:48;;;;;;;22.33;17.83;;;;;;;5.52;50.35;99503.44;6779642;29;20210;-86
2022/02/12 19:58:09;;;;;;;14.50;9.27;;;;;;;5.27;50.15;99466.81;6761398;29;20618;-85
2022/02/12 20:01:38;;;;;;;12.03;8.10;;;;;;;4.74;50.84;99439.31;6759414;29;20236;-85
2022/02/12 20:05:03;;;;;;;12.73;8.30;;;;;;;5.29;50.32;99475.53;6757385;29;20216;-87
2022/02/12 20:08:31;;;;;;;14.93;8.87;;;;;;;5.60;51.40;99565.03;6758509;29;20238;-87
2022/02/12 20:11:56;;;;;;;25.50;12.50;;;;;;;5.27;51.21;99536.34;6762048;29;20245;-87
2022/02/12 20:15:18;;;;;;;27.77;14.30;;;;;;;5.66;50.73;99546.50;6768534;29;20216;-85
2022/02/12 20:18:58;;;;;;;24.83;12.30;;;;;;;5.20;50.75;99479.16;6853328;28;20256;-85
2022/02/12 20:22:23;;;;;;;15.83;10.30;;;;;;;4.91;50.80;99422.44;6866948;28;20648;-86
2022/02/12 20:25:46;;;;;;;14.90;9.40;;;;;;;5.75;50.70;99558.97;6865724;28;20214;-85
2022/02/12 20:29:14;;;;;;;19.13;10.97;;;;;;;5.61;50.67;99523.91;6870642;28;20241;-85
2022/02/12 20:32:54;;;;;;;13.07;9.30;;;;;;;5.38;50.48;99496.84;6871557;28;20240;-85
2022/02/12 20:36:17;;;;;;;9.50;6.90;;;;;;;5.15;51.54;99500.16;6871157;28;20395;-84
2022/02/12 20:39:39;;;;;;;16.47;11.57;;;;;;;4.88;52.00;99502.88;6873257;28;20207;-84
2022/02/12 20:43:01;;;;;;;21.07;14.10;;;;;;;5.46;51.82;99549.53;6872241;28;20274;-82
2022/02/12 20:46:23;;;;;;;23.37;14.87;;;;;;;5.45;51.76;99540.69;6861657;28;20209;-84
2022/02/12 20:49:44;;;;;;;23.10;13.53;;;;;;;5.33;50.92;99485.78;6857850;28;20711;-84
2022/02/12 20:53:07;;;;;;;11.57;8.83;;;;;;;5.00;51.31;99490.97;6869448;28;20252;-84